createdAt,value
2023-05-03T00:00:21.300Z,75.43
2023-05-03T00:02:48.226Z,75.50
2023-05-03T00:05:15.370Z,75.60
2023-05-03T00:07:43.884Z,75.57
2023-05-03T00:10:16.801Z,75.47
2023-05-03T00:12:44.600Z,75.46
2023-05-03T00:15:11.802Z,75.69
2023-05-03T00:17:38.820Z,75.53
2023-05-03T00:20:07.274Z,75.49
2023-05-03T00:22:34.710Z,75.46
2023-05-03T00:25:01.854Z,75.52
2023-05-03T00:27:29.200Z,75.48
2023-05-03T00:29:56.328Z,75.54
2023-05-03T00:32:23.522Z,75.49
2023-05-03T00:34:55.019Z,75.52
2023-05-03T00:37:23.256Z,75.56
2023-05-03T00:39:50.166Z,75.55
2023-05-03T00:42:18.251Z,75.50
2023-05-03T00:44:45.168Z,75.48
2023-05-03T00:47:12.697Z,75.65
2023-05-03T00:49:39.836Z,75.60
2023-05-03T00:52:07.034Z,75.66
2023-05-03T00:54:35.469Z,75.67
2023-05-03T00:57:04.980Z,75.89
2023-05-03T00:59:34.493Z,76.00
2023-05-03T01:02:02.101Z,76.21
2023-05-03T01:04:29.637Z,76.34
2023-05-03T01:07:12.787Z,76.15
2023-05-03T01:09:53.521Z,76.13
2023-05-03T01:12:49.781Z,76.21
2023-05-03T01:16:04.664Z,76.50
2023-05-03T01:18:36.354Z,76.63
2023-05-03T01:21:05.324Z,76.39
2023-05-03T01:23:54.561Z,76.40
2023-05-03T01:26:23.278Z,76.44
2023-05-03T01:28:50.830Z,76.74
2023-05-03T01:31:33.985Z,76.50
2023-05-03T01:34:14.595Z,76.43
2023-05-03T01:36:44.350Z,76.47
2023-05-03T01:39:23.514Z,76.49
2023-05-03T01:41:54.142Z,76.54
2023-05-03T01:44:22.912Z,76.75
2023-05-03T01:46:50.520Z,76.74
2023-05-03T01:49:17.621Z,76.82
2023-05-03T01:51:44.519Z,76.95
2023-05-03T01:54:11.468Z,77.11
2023-05-03T01:56:38.264Z,77.06
2023-05-03T01:59:05.332Z,76.69
2023-05-03T02:01:32.345Z,76.61
2023-05-03T02:03:59.398Z,76.54
2023-05-03T02:06:26.612Z,76.55
2023-05-03T02:08:54.480Z,76.53
2023-05-03T02:11:21.676Z,76.57
2023-05-03T02:13:55.900Z,76.52
2023-05-03T02:16:23.503Z,76.73
2023-05-03T02:18:52.014Z,76.71
2023-05-03T02:21:18.873Z,76.65
2023-05-03T02:23:45.740Z,76.68
2023-05-03T02:26:12.713Z,76.57
2023-05-03T02:28:39.642Z,76.63
2023-05-03T02:31:06.898Z,76.51
2023-05-03T02:33:33.819Z,76.69
2023-05-03T02:36:00.977Z,76.54
2023-05-03T02:38:28.047Z,76.73
2023-05-03T02:40:56.061Z,76.86
2023-05-03T02:43:23.671Z,76.98
2023-05-03T02:45:50.802Z,77.15
2023-05-03T02:48:18.317Z,77.37
2023-05-03T02:50:45.333Z,77.34
2023-05-03T02:53:12.578Z,77.31
2023-05-03T02:55:40.374Z,77.37
2023-05-03T02:58:07.658Z,77.49
2023-05-03T03:00:34.694Z,77.66
2023-05-03T03:03:01.686Z,77.70
2023-05-03T03:05:28.826Z,77.72
2023-05-03T03:07:56.557Z,77.40
2023-05-03T03:10:23.977Z,77.44
2023-05-03T03:12:50.906Z,77.34
2023-05-03T03:15:31.967Z,77.29
2023-05-03T03:17:58.819Z,77.12
2023-05-03T03:20:26.316Z,77.27
2023-05-03T03:22:53.313Z,77.25
2023-05-03T03:25:20.894Z,77.53
2023-05-03T03:27:47.984Z,77.52
2023-05-03T03:30:15.290Z,77.65
2023-05-03T03:32:53.376Z,77.53
2023-05-03T03:35:27.848Z,77.33
2023-05-03T03:37:54.824Z,77.21
2023-05-03T03:40:22.850Z,77.11
2023-05-03T03:42:51.855Z,77.12
2023-05-03T03:45:20.555Z,77.18
2023-05-03T03:47:47.560Z,77.21
2023-05-03T03:50:14.608Z,77.17
2023-05-03T03:52:41.659Z,77.18
2023-05-03T03:55:08.972Z,77.21
2023-05-03T03:57:36.096Z,77.24
2023-05-03T04:00:10.625Z,77.36
2023-05-03T04:02:44.623Z,77.27
2023-05-03T04:05:17.410Z,77.36
2023-05-03T04:07:45.956Z,77.43
2023-05-03T04:10:14.116Z,77.41
2023-05-03T04:12:41.390Z,77.41
2023-05-03T04:15:08.869Z,77.35
2023-05-03T04:17:38.722Z,77.21
2023-05-03T04:20:11.283Z,77.32
2023-05-03T04:22:40.502Z,77.54
2023-05-03T04:25:14.137Z,77.56
2023-05-03T04:27:44.874Z,77.53
2023-05-03T04:30:15.621Z,77.60
2023-05-03T04:32:44.870Z,77.76
2023-05-03T04:35:12.976Z,77.76
2023-05-03T04:37:44.195Z,77.77
2023-05-03T04:40:14.965Z,77.60
2023-05-03T04:42:46.368Z,77.50
2023-05-03T04:45:14.662Z,77.50
2023-05-03T04:47:41.964Z,77.45
2023-05-03T04:50:11.365Z,77.31
2023-05-03T04:52:41.415Z,77.33
2023-05-03T04:55:09.870Z,77.40
2023-05-03T04:57:38.309Z,77.31
2023-05-03T05:00:11.322Z,77.33
2023-05-03T05:02:43.831Z,77.48
2023-05-03T05:05:12.025Z,77.57
2023-05-03T05:07:38.781Z,77.43
2023-05-03T05:10:06.808Z,77.12
2023-05-03T05:12:33.676Z,77.39
2023-05-03T05:15:04.294Z,77.46
2023-05-03T05:17:31.942Z,77.32
2023-05-03T05:20:01.556Z,77.37
2023-05-03T05:22:29.707Z,77.59
2023-05-03T05:24:59.361Z,77.52
2023-05-03T05:27:27.762Z,77.47
2023-05-03T05:29:58.680Z,77.24
2023-05-03T05:32:26.072Z,77.14
2023-05-03T05:34:55.471Z,77.42
2023-05-03T05:37:25.965Z,77.58
2023-05-03T05:39:53.698Z,77.73
2023-05-03T05:42:22.913Z,77.63
2023-05-03T05:44:50.218Z,77.58
2023-05-03T05:47:17.266Z,77.68
2023-05-03T05:49:46.151Z,77.80
2023-05-03T05:52:13.531Z,77.88
2023-05-03T05:54:41.623Z,77.93
2023-05-03T05:57:08.939Z,77.95
2023-05-03T05:59:36.294Z,77.87
2023-05-03T06:02:03.370Z,78.11
2023-05-03T06:04:30.534Z,78.03
2023-05-03T06:06:58.021Z,78.19
2023-05-03T06:09:25.457Z,78.13
2023-05-03T06:11:57.295Z,78.63
2023-05-03T06:14:26.479Z,78.62
2023-05-03T06:16:54.104Z,78.50
2023-05-03T06:19:22.165Z,78.85
2023-05-03T06:21:49.545Z,78.92
2023-05-03T06:24:21.277Z,78.85
2023-05-03T06:26:51.064Z,79.11
2023-05-03T06:29:18.410Z,79.44
2023-05-03T06:31:45.602Z,79.79
2023-05-03T06:34:13.328Z,79.82
2023-05-03T06:36:43.083Z,79.74
2023-05-03T06:39:11.596Z,79.56
2023-05-03T06:41:38.805Z,79.81
2023-05-03T06:44:07.604Z,79.88
2023-05-03T06:46:34.953Z,80.43
2023-05-03T06:49:02.095Z,80.62
2023-05-03T06:51:30.679Z,80.43
2023-05-03T06:54:06.702Z,81.15
2023-05-03T06:56:36.674Z,80.91
2023-05-03T06:59:04.591Z,80.72
2023-05-03T07:01:32.601Z,80.96
2023-05-03T07:03:59.961Z,81.11
2023-05-03T07:06:27.201Z,82.07
2023-05-03T07:08:54.561Z,82.61
2023-05-03T07:11:25.498Z,82.45
2023-05-03T07:13:53.623Z,82.62
2023-05-03T07:16:21.375Z,82.15
2023-05-03T07:18:50.819Z,81.36
2023-05-03T07:21:17.821Z,81.39
2023-05-03T07:23:45.029Z,81.42
2023-05-03T07:26:12.218Z,81.20
2023-05-03T07:28:39.374Z,81.39
2023-05-03T07:31:06.592Z,81.48
2023-05-03T07:33:37.864Z,81.40
2023-05-03T07:36:05.847Z,81.64
2023-05-03T07:38:34.223Z,81.32
2023-05-03T07:41:01.290Z,81.42
2023-05-03T07:43:29.372Z,81.33
2023-05-03T07:45:56.592Z,81.29
2023-05-03T07:48:23.580Z,81.13
2023-05-03T07:50:52.638Z,81.25
2023-05-03T07:53:19.674Z,81.36
2023-05-03T07:55:46.761Z,81.32
2023-05-03T07:58:13.819Z,81.35
2023-05-03T08:00:41.082Z,81.41
2023-05-03T08:03:08.241Z,81.41
2023-05-03T08:05:36.835Z,81.43
2023-05-03T08:08:05.627Z,81.97
2023-05-03T08:10:37.880Z,81.72
2023-05-03T08:13:06.482Z,81.53
2023-05-03T08:15:34.014Z,81.63
2023-05-03T08:18:02.678Z,81.91
2023-05-03T08:20:36.908Z,81.57
2023-05-03T08:23:05.664Z,81.68
2023-05-03T08:25:33.158Z,81.72
2023-05-03T08:28:00.504Z,82.26
2023-05-03T08:30:27.530Z,82.10
2023-05-03T08:32:54.923Z,82.06
2023-05-03T08:35:22.301Z,81.61
2023-05-03T08:37:49.263Z,81.88
2023-05-03T08:40:16.794Z,81.75
2023-05-03T08:42:45.561Z,81.72
2023-05-03T08:45:15.843Z,81.71
2023-05-03T08:47:45.558Z,81.59
2023-05-03T08:50:16.178Z,81.65
2023-05-03T08:52:44.415Z,81.42
2023-05-03T08:55:11.742Z,81.12
2023-05-03T08:57:39.019Z,81.25
2023-05-03T09:00:10.601Z,81.62
2023-05-03T09:02:40.990Z,81.85
2023-05-03T09:05:17.469Z,81.60
2023-05-03T09:08:09.589Z,81.14
2023-05-03T09:10:41.732Z,81.72
2023-05-03T09:13:10.004Z,81.42
2023-05-03T09:15:37.374Z,81.84
2023-05-03T09:18:12.138Z,80.98
2023-05-03T09:20:41.898Z,80.57
2023-05-03T09:23:10.244Z,80.94
2023-05-03T09:25:47.921Z,81.35
2023-05-03T09:28:17.220Z,81.44
2023-05-03T09:30:45.349Z,81.97
2023-05-03T09:33:20.717Z,82.14
2023-05-03T09:36:13.996Z,82.04
2023-05-03T09:38:43.509Z,81.09
2023-05-03T09:41:11.165Z,80.46
2023-05-03T09:43:52.276Z,80.55
2023-05-03T09:46:20.628Z,81.22
2023-05-03T09:48:49.476Z,81.84
2023-05-03T09:51:16.947Z,81.92
2023-05-03T09:53:43.852Z,82.40
2023-05-03T09:56:14.918Z,82.33
2023-05-03T09:58:43.953Z,82.75
2023-05-03T10:01:11.310Z,82.26
2023-05-03T10:03:42.382Z,81.59
2023-05-03T10:06:19.373Z,82.00
2023-05-03T10:08:52.622Z,81.87
2023-05-03T10:11:22.071Z,81.58
2023-05-03T10:13:49.223Z,82.10
2023-05-03T10:16:22.487Z,81.49
2023-05-03T10:19:05.679Z,81.55
2023-05-03T10:22:09.417Z,81.30
2023-05-03T10:24:58.639Z,81.67
2023-05-03T10:27:26.444Z,81.80
2023-05-03T10:29:54.102Z,81.46
2023-05-03T10:32:34.194Z,82.05
2023-05-03T10:35:09.358Z,82.20
2023-05-03T10:37:42.454Z,82.39
2023-05-03T10:40:15.284Z,82.05
2023-05-03T10:42:57.425Z,82.48
2023-05-03T10:45:25.904Z,81.83
2023-05-03T10:48:21.070Z,82.10
2023-05-03T10:50:49.352Z,81.94
2023-05-03T10:53:32.130Z,82.56
2023-05-03T10:56:13.327Z,82.62
2023-05-03T10:58:48.785Z,82.45
2023-05-03T11:01:19.876Z,82.49
2023-05-03T11:03:50.324Z,82.55
2023-05-03T11:06:38.057Z,82.39
2023-05-03T11:09:09.553Z,82.18
2023-05-03T11:11:39.421Z,82.20
2023-05-03T11:14:08.470Z,82.48
2023-05-03T11:16:37.081Z,82.48
2023-05-03T11:19:04.361Z,82.39
2023-05-03T11:21:33.070Z,82.41
2023-05-03T11:24:01.662Z,82.32
2023-05-03T11:26:28.807Z,82.28
2023-05-03T11:28:55.843Z,82.37
2023-05-03T11:31:23.969Z,82.73
2023-05-03T11:33:51.452Z,82.52
2023-05-03T11:36:18.635Z,82.45
2023-05-03T11:38:45.665Z,82.58
2023-05-03T11:41:19.208Z,82.46
2023-05-03T11:43:54.880Z,82.54
2023-05-03T11:46:28.169Z,82.71
2023-05-03T11:48:56.550Z,82.63
2023-05-03T11:51:24.555Z,82.76
2023-05-03T11:53:52.538Z,82.70
2023-05-03T11:56:21.196Z,82.81
2023-05-03T11:58:59.706Z,82.66
2023-05-03T12:01:28.703Z,82.63
2023-05-03T12:04:02.803Z,82.80
2023-05-03T12:06:34.043Z,82.71
2023-05-03T12:09:06.237Z,82.81
2023-05-03T12:11:43.854Z,82.60
2023-05-03T12:14:12.023Z,82.80
2023-05-03T12:16:50.822Z,82.60
2023-05-03T12:19:32.835Z,82.65
2023-05-03T12:24:33.154Z,82.72
2023-05-03T12:27:02.894Z,82.98
2023-05-03T12:29:34.836Z,82.97
2023-05-03T12:32:04.400Z,83.04
2023-05-03T12:34:35.419Z,83.14
2023-05-03T12:37:05.760Z,83.00
2023-05-03T12:39:34.536Z,83.01
2023-05-03T12:42:08.107Z,83.23
2023-05-03T12:44:35.879Z,83.13
2023-05-03T12:47:04.391Z,83.11
2023-05-03T12:49:32.337Z,83.35
2023-05-03T12:52:34.680Z,83.12
2023-05-03T12:54:49.634Z,83.24
2023-05-03T12:57:22.910Z,83.02
2023-05-03T12:59:55.234Z,83.28
2023-05-03T13:05:00.504Z,83.11
2023-05-03T13:07:31.735Z,83.18
2023-05-03T13:12:31.056Z,83.38
2023-05-03T13:14:58.334Z,82.98
2023-05-03T13:17:26.291Z,83.55
2023-05-03T13:19:53.411Z,83.05
2023-05-03T13:22:20.776Z,83.32
2023-05-03T13:24:48.067Z,83.30
2023-05-03T13:27:16.162Z,83.08
2023-05-03T13:29:46.157Z,83.03
2023-05-03T13:32:14.833Z,83.21
2023-05-03T13:34:41.873Z,83.16
2023-05-03T13:37:08.976Z,83.22
2023-05-03T13:39:36.101Z,83.33
2023-05-03T13:42:03.595Z,83.26
2023-05-03T13:44:30.513Z,83.27
2023-05-03T13:46:57.561Z,83.20
2023-05-03T13:49:25.642Z,83.32
2023-05-03T13:51:52.937Z,83.26
2023-05-03T13:54:20.059Z,83.15
2023-05-03T13:56:49.570Z,83.22
2023-05-03T13:59:16.601Z,83.56
2023-05-03T14:01:43.809Z,83.54
2023-05-03T14:04:11.139Z,83.42
2023-05-03T14:06:41.133Z,83.52
2023-05-03T14:09:09.705Z,83.97
2023-05-03T14:11:38.163Z,83.68
2023-05-03T14:14:05.239Z,83.69
2023-05-03T14:19:03.659Z,83.58
2023-05-03T14:21:31.959Z,83.42
2023-05-03T14:23:59.299Z,83.29
2023-05-03T14:26:26.868Z,83.16
2023-05-03T14:28:54.613Z,83.05
2023-05-03T14:31:23.260Z,83.12
2023-05-03T14:33:50.416Z,83.41
2023-05-03T14:36:17.638Z,83.51
2023-05-03T14:38:45.159Z,83.61
2023-05-03T14:41:14.663Z,83.63
2023-05-03T14:43:41.785Z,83.75
2023-05-03T14:46:10.117Z,83.60
2023-05-03T14:48:38.316Z,83.82
2023-05-03T14:51:05.762Z,83.90
2023-05-03T14:53:33.030Z,83.56
2023-05-03T14:56:02.340Z,83.35
2023-05-03T14:58:29.383Z,83.52
2023-05-03T15:01:00.009Z,83.41
2023-05-03T15:03:27.637Z,83.25
2023-05-03T15:05:54.702Z,83.24
2023-05-03T15:08:22.032Z,83.13
2023-05-03T15:10:49.215Z,83.24
2023-05-03T15:13:16.980Z,83.28
2023-05-03T15:15:46.061Z,83.45
2023-05-03T15:18:14.750Z,83.62
2023-05-03T15:20:41.757Z,83.75
2023-05-03T15:23:09.105Z,83.82
2023-05-03T15:25:37.784Z,83.45
2023-05-03T15:28:04.927Z,83.96
2023-05-03T15:30:33.093Z,83.65
2023-05-03T15:33:01.157Z,83.76
2023-05-03T15:35:28.245Z,83.81
2023-05-03T15:37:55.379Z,84.08
2023-05-03T15:40:25.146Z,83.83
2023-05-03T15:42:53.933Z,83.68
2023-05-03T15:45:23.253Z,83.97
2023-05-03T15:47:50.565Z,84.03
2023-05-03T15:50:17.917Z,83.94
2023-05-03T15:52:46.785Z,83.95
2023-05-03T15:55:15.793Z,83.90
2023-05-03T15:57:43.290Z,83.61
2023-05-03T16:00:12.548Z,83.81
2023-05-03T16:02:42.482Z,83.92
2023-05-03T16:05:11.317Z,83.90
2023-05-03T16:07:38.559Z,84.05
2023-05-03T16:10:06.682Z,84.42
2023-05-03T16:12:34.092Z,84.10
2023-05-03T16:15:01.233Z,84.21
2023-05-03T16:17:28.451Z,84.25
2023-05-03T16:19:55.593Z,84.23
2023-05-03T16:22:22.840Z,84.26
2023-05-03T16:24:50.877Z,84.55
2023-05-03T16:27:19.496Z,84.58
2023-05-03T16:29:46.871Z,84.26
2023-05-03T16:32:14.178Z,84.24
2023-05-03T16:34:41.336Z,84.16
2023-05-03T16:37:08.405Z,84.61
2023-05-03T16:39:35.353Z,84.61
2023-05-03T16:42:05.457Z,84.10
2023-05-03T16:44:32.551Z,84.42
2023-05-03T16:46:59.550Z,84.55
2023-05-03T16:49:27.028Z,84.18
2023-05-03T16:51:53.874Z,84.30
2023-05-03T16:54:24.382Z,84.19
2023-05-03T16:56:52.371Z,84.33
2023-05-03T16:59:19.608Z,84.41
2023-05-03T17:01:46.762Z,84.42
2023-05-03T17:04:14.765Z,84.49
2023-05-03T17:06:41.868Z,84.28
2023-05-03T17:09:10.348Z,84.23
2023-05-03T17:11:37.579Z,84.08
2023-05-03T17:14:04.788Z,84.32
2023-05-03T17:16:32.214Z,84.47
2023-05-03T17:18:59.374Z,84.35
2023-05-03T17:21:27.524Z,84.10
2023-05-03T17:23:54.582Z,84.13
2023-05-03T17:26:21.577Z,84.42
2023-05-03T17:28:48.704Z,84.43
2023-05-03T17:31:15.719Z,84.58
2023-05-03T17:33:42.862Z,84.52
2023-05-03T17:36:09.821Z,84.32
2023-05-03T17:38:37.119Z,84.48
2023-05-03T17:41:08.118Z,84.49
2023-05-03T17:43:39.073Z,84.71
2023-05-03T17:46:11.323Z,84.61
2023-05-03T17:48:43.475Z,84.61
2023-05-03T17:51:13.670Z,84.58
2023-05-03T17:53:43.504Z,84.45
2023-05-03T17:56:16.082Z,84.63
2023-05-03T17:58:45.640Z,84.72
2023-05-03T18:01:13.764Z,84.71
2023-05-03T18:03:43.916Z,84.69
2023-05-03T18:06:13.480Z,84.64
2023-05-03T18:08:41.570Z,84.81
2023-05-03T18:11:09.410Z,84.78
2023-05-03T18:13:36.848Z,84.79
2023-05-03T18:16:08.415Z,84.88
2023-05-03T18:18:35.624Z,84.84
2023-05-03T18:21:04.844Z,84.88
2023-05-03T18:23:32.743Z,84.88
2023-05-03T18:26:00.758Z,84.90
2023-05-03T18:28:28.055Z,84.93
2023-05-03T18:30:57.718Z,84.93
2023-05-03T18:33:25.222Z,84.90
2023-05-03T18:35:53.717Z,85.00
2023-05-03T18:38:23.375Z,84.93
2023-05-03T18:40:50.733Z,84.86
2023-05-03T18:43:18.148Z,84.68
2023-05-03T18:45:45.140Z,84.74
2023-05-03T18:48:12.342Z,84.69
2023-05-03T18:50:39.823Z,84.73
2023-05-03T18:53:07.011Z,84.69
2023-05-03T18:55:34.084Z,84.69
2023-05-03T18:58:02.247Z,84.68
2023-05-03T19:00:29.748Z,84.64
2023-05-03T19:02:57.078Z,84.68
2023-05-03T19:05:24.169Z,84.65
2023-05-03T19:07:51.377Z,84.57
2023-05-03T19:10:19.971Z,84.44
2023-05-03T19:12:47.144Z,84.32
2023-05-03T19:15:14.239Z,84.30
2023-05-03T19:17:42.197Z,84.33
2023-05-03T19:20:10.512Z,84.41
2023-05-03T19:22:37.962Z,84.39
2023-05-03T19:25:07.362Z,84.37
2023-05-03T19:27:34.537Z,84.34
2023-05-03T19:30:01.530Z,84.38
2023-05-03T19:32:28.725Z,84.39
2023-05-03T19:34:55.996Z,84.35
2023-05-03T19:37:23.087Z,84.23
2023-05-03T19:39:49.947Z,84.26
2023-05-03T19:42:17.570Z,84.25
2023-05-03T19:44:44.412Z,84.17
2023-05-03T19:47:11.618Z,84.13
2023-05-03T19:49:38.679Z,84.06
2023-05-03T19:52:06.223Z,84.04
2023-05-03T19:54:33.357Z,84.19
2023-05-03T19:57:07.699Z,84.25
2023-05-03T19:59:35.002Z,84.33
2023-05-03T20:02:02.185Z,84.20
2023-05-03T20:04:29.286Z,84.21
2023-05-03T20:06:57.449Z,84.13
2023-05-03T20:09:24.554Z,84.10
2023-05-03T20:11:58.926Z,84.03
2023-05-03T20:14:29.275Z,84.00
2023-05-03T20:16:57.314Z,83.99
2023-05-03T20:19:27.484Z,83.95
2023-05-03T20:21:54.499Z,83.94
2023-05-03T20:24:22.221Z,83.90
2023-05-03T20:26:49.389Z,83.84
2023-05-03T20:29:16.302Z,84.00
2023-05-03T20:31:44.802Z,83.94
2023-05-03T20:34:12.768Z,83.94
2023-05-03T20:36:39.740Z,83.90
2023-05-03T20:39:06.701Z,83.87
2023-05-03T20:41:33.828Z,83.85
2023-05-03T20:44:00.908Z,83.92
2023-05-03T20:46:28.132Z,83.76
2023-05-03T20:48:56.205Z,83.90
2023-05-03T20:51:23.737Z,83.94
2023-05-03T20:53:50.964Z,83.98
2023-05-03T20:56:18.153Z,83.90
2023-05-03T20:58:45.889Z,83.92
2023-05-03T21:01:14.499Z,83.87
2023-05-03T21:03:41.694Z,83.86
2023-05-03T21:06:08.939Z,83.78
2023-05-03T21:08:36.156Z,83.78
2023-05-03T21:11:04.318Z,83.73
2023-05-03T21:13:31.243Z,83.74
2023-05-03T21:15:59.651Z,83.83
2023-05-03T21:18:27.341Z,84.00
2023-05-03T21:20:54.767Z,83.98
2023-05-03T21:23:21.787Z,84.05
2023-05-03T21:25:48.982Z,83.99
2023-05-03T21:28:15.995Z,84.19
2023-05-03T21:30:43.983Z,84.18
2023-05-03T21:33:11.002Z,84.12
2023-05-03T21:35:38.229Z,84.15
2023-05-03T21:38:05.368Z,84.16
2023-05-03T21:40:33.206Z,84.31
2023-05-03T21:43:01.644Z,84.20
2023-05-03T21:45:29.076Z,84.29
2023-05-03T21:47:56.091Z,84.39
2023-05-03T21:50:23.741Z,84.27
2023-05-03T21:52:50.678Z,84.35
2023-05-03T21:55:18.055Z,84.32
2023-05-03T21:57:45.097Z,84.35
2023-05-03T22:00:19.901Z,84.29
2023-05-03T22:02:47.770Z,84.23
2023-05-03T22:05:14.796Z,84.19
2023-05-03T22:07:41.991Z,84.06
2023-05-03T22:10:09.760Z,84.07
2023-05-03T22:12:37.048Z,84.23
2023-05-03T22:15:06.407Z,84.30
2023-05-03T22:17:34.104Z,84.29
2023-05-03T22:20:01.105Z,84.29
2023-05-03T22:22:28.286Z,84.32
2023-05-03T22:24:55.744Z,84.19
2023-05-03T22:27:23.754Z,84.25
2023-05-03T22:29:51.354Z,84.13
2023-05-03T22:32:18.678Z,84.20
2023-05-03T22:34:46.418Z,84.15
2023-05-03T22:37:13.579Z,84.15
2023-05-03T22:39:40.629Z,84.17
2023-05-03T22:42:09.349Z,84.12
2023-05-03T22:44:37.296Z,84.06
2023-05-03T22:47:04.469Z,84.16
2023-05-03T22:49:31.648Z,84.16
2023-05-03T22:51:58.655Z,84.07
2023-05-03T22:54:26.204Z,83.92
2023-05-03T22:56:53.332Z,84.03
2023-05-03T22:59:22.853Z,83.93
2023-05-03T23:01:49.992Z,84.07
2023-05-03T23:04:17.039Z,83.77
2023-05-03T23:06:44.648Z,83.74
2023-05-03T23:09:11.906Z,83.76
2023-05-03T23:11:39.405Z,83.69
2023-05-03T23:14:06.403Z,83.69
2023-05-03T23:16:33.576Z,83.71
2023-05-03T23:19:00.566Z,83.84
2023-05-03T23:21:27.735Z,83.56
2023-05-03T23:23:54.868Z,83.42
2023-05-03T23:26:22.046Z,83.63
2023-05-03T23:28:49.741Z,83.65
2023-05-03T23:31:17.285Z,83.73
2023-05-03T23:33:44.791Z,83.54
2023-05-03T23:36:12.486Z,83.66
2023-05-03T23:38:39.575Z,83.68
2023-05-03T23:41:08.899Z,83.75
2023-05-03T23:43:35.954Z,83.77
2023-05-03T23:46:03.145Z,83.72
2023-05-03T23:48:31.620Z,83.68
2023-05-03T23:50:58.744Z,83.74
2023-05-03T23:53:25.802Z,83.70
2023-05-03T23:55:53.142Z,83.51
2023-05-03T23:58:20.231Z,83.60
